Latest Coastal Weather Observations for Samuel Hill

IDQ60701

Issued at 2:42 am EST Tuesday 24 January 2017 (issued every 10 minutes, with the page automatically refreshed every 10 minutes)

About coastal observations | Map of coastal stations | Coastal observations for QLD | Marine services | Other Formats
Station Details ID: 033308 Name: SAMUEL HILL AERO Lat: -22.74 Lon: 150.66 Height: 31.0 m
Data from the previous 72 hours. | See also: Recent months at Samuel Hill
Date/Time
EST
Temp
°C
Wind Pressure Rain since
9am
mm
Weather Cloud Vis
km
Sea
Height
m
Swell
Dir  Spd
kts
Gust
kts
hPa Trend Height
m
Period
s
Dir
24/02:30am 21.9 SSE 4 5 1013.5 - 0.2 - - 10 - - - -
24/02:00am 23.0 SE 4 5 1013.5 - 0.2 - - 10 - - - -
24/01:30am 24.2 ESE 5 7 1013.6 - 0.2 - Partly cloudy 10 - - - -
24/01:00am 24.2 ESE 5 7 1013.8 - 0.2 - Partly cloudy 10 - - - -
24/12:30am 24.0 ESE 5 7 1014.0 - 0.2 - Partly cloudy 10 - - - -
24/12:00am 22.2 CALM 0 0 1014.1 - 0.2 - Mostly cloudy 10 - - - -
 
Date/Time
EST
Temp
°C
Wind Pressure Rain since
9am
mm
Weather Cloud Vis
km
Sea
Height
m
Swell
Dir  Spd
kts
Gust
kts
hPa Trend Height
m
Period
s
Dir
23/11:30pm 21.9 CALM 0 0 1014.4 - 0.2 - Partly cloudy 10 - - - -
23/11:00pm 22.4 CALM 0 0 1014.4 - 0.2 - Partly cloudy 10 - - - -
23/10:30pm 22.1 SE 4 6 1014.3 - 0.2 - - 10 - - - -
23/10:00pm 22.1 SE 3 4 1014.2 - 0.2 - - 10 - - - -
23/09:30pm 22.2 CALM 0 0 1014.3 - 0.2 - - 10 - - - -
23/09:00pm 22.4 CALM 0 3 1014.3 - 0.2 - - 10 - - - -
23/08:30pm 23.2 CALM 0 0 1014.1 - 0.2 - - 10 - - - -
23/08:00pm 24.1 CALM 0 0 1014.2 - 0.2 - Partly cloudy 10 - - - -
23/07:30pm 24.6 ESE 2 4 1014.0 - 0.2 - Partly cloudy 10 - - - -
23/07:00pm 25.5 ESE 5 7 1013.7 - 0.2 - Partly cloudy 10 - - - -
23/06:30pm 26.1 ESE 7 11 1013.5 - 0.2 - Cloudy 10 - - - -
23/06:00pm 26.6 ESE 8 13 1012.9 - 0.2 - Cloudy 10 - - - -
23/05:30pm 27.4 ESE 8 14 1012.4 - 0.2 - Partly cloudy 10 - - - -
23/05:00pm 28.3 E 7 11 1012.0 - 0.2 - - 10 - - - -
23/04:30pm 28.5 ESE 10 15 1012.0 - 0.2 - Partly cloudy 10 - - - -
23/04:00pm 28.5 ESE 10 14 1012.0 - 0.2 - Partly cloudy 10 - - - -
23/03:30pm 28.8 SE 10 16 1012.0 - 0.2 - Partly cloudy 10 - - - -
23/03:00pm 28.2 ESE 9 13 1012.1 - 0.2 - Mostly cloudy 10 - - - -
23/02:30pm 28.4 ESE 10 15 1012.2 - 0.2 - Partly cloudy 10 - - - -
23/02:00pm 28.8 ESE 11 18 1012.5 - 0.2 - Partly cloudy 10 - - - -
23/01:30pm 28.2 ESE 11 18 1012.6 - 0.2 - Partly cloudy 10 - - - -
23/01:00pm 29.3 ESE 11 18 1012.8 - 0.2 - Partly cloudy 10 - - - -
23/12:30pm 28.6 ESE 9 14 1013.1 - 0.2 - Partly cloudy 10 - - - -
23/12:00pm 28.2 ESE 10 16 1013.4 - 0.2 - Cloudy 10 - - - -
23/11:30am 27.0 ESE 10 16 1013.9 - 0.2 - Partly cloudy 10 - - - -
23/11:00am 27.8 ESE 11 17 1014.0 - 0.2 - Partly cloudy 10 - - - -
23/10:30am 27.9 ESE 11 16 1014.0 - 0.0 - Partly cloudy 10 - - - -
23/10:00am 27.8 ESE 11 18 1014.2 - 0.0 - Partly cloudy 10 - - - -
23/09:30am 27.1 ESE 10 15 1014.3 - 0.0 - Cloudy 10 - - - -
23/09:00am 26.7 SE 7 12 1014.3 - 3.6 - Mostly cloudy 10 - - - -
23/08:30am 25.6 ESE 8 12 1014.2 - 3.6 - Partly cloudy 10 - - - -
23/08:00am 23.9 SE 7 12 1014.1 - 3.6 - Partly cloudy 10 - - - -
23/07:30am 24.8 SE 5 7 1013.8 - 3.6 - Partly cloudy 10 - - - -
23/07:00am 24.0 SSE 3 5 1013.7 - 3.6 - Cloudy 10 - - - -
23/06:30am 23.5 SSW 3 5 1013.5 - 3.6 - Cloudy 10 - - - -
23/06:00am 23.5 E 5 7 1013.0 - 3.6 Rain Cloudy 10 - - - -
23/05:49am 23.4 ENE 7 13 1012.8 - 3.6 - Partly cloudy 10 - - - -
23/05:30am 23.2 SE 8 12 1012.6 - 3.4 - Partly cloudy 5 - - - -
23/05:22am 23.3 SE 8 13 1012.4 - 3.0 - Partly cloudy 7 - - - -
23/05:00am 23.7 ESE 7 9 1012.1 - 2.6 - Partly cloudy 10 - - - -
23/04:48am 23.8 SE 11 18 1012.0 - 2.6 - Partly cloudy 7 - - - -
23/04:30am 24.8 SE 4 7 1011.7 - 2.4 - Partly cloudy 10 - - - -
23/04:00am 24.7 SE 5 7 1011.3 - 2.4 - Cloudy 10 - - - -
23/03:30am 24.8 SE 6 10 1011.3 - 2.4 - Partly cloudy 10 - - - -
23/03:00am 24.5 SE 6 9 1011.5 - 2.4 - Cloudy 10 - - - -
23/02:30am 24.4 SE 7 12 1011.7 - 2.4 - Partly cloudy 10 - - - -
23/02:00am 24.5 SE 7 11 1012.0 - 2.4 - Partly cloudy 10 - - - -
23/01:30am 24.1 SE 6 8 1012.2 - 2.4 - Partly cloudy 10 - - - -
23/01:00am 23.9 SE 6 12 1012.4 - 2.4 - Partly cloudy 10 - - - -
23/12:30am 23.6 ESE 7 12 1012.7 - 2.4 - Partly cloudy 10 - - - -
23/12:28am 23.6 ESE 7 12 1012.8 - 2.4 - Partly cloudy 10 - - - -
23/12:21am 23.5 ESE 8 12 1012.8 - 2.4 - Partly cloudy 9 - - - -
23/12:05am 23.5 SE 7 11 1013.1 - 2.4 - Partly cloudy 5 - - - -
23/12:04am 23.5 SE 7 11 1013.1 - 2.4 - Partly cloudy 5 - - - -
23/12:00am 23.5 SE 7 11 1013.1 - 2.4 Drizzle Cloudy 6 - - - -
 
Date/Time
EST
Temp
°C
Wind Pressure Rain since
9am
mm
Weather Cloud Vis
km
Sea
Height
m
Swell
Dir  Spd
kts
Gust
kts
hPa Trend Height
m
Period
s
Dir
22/11:30pm 23.8 ESE 9 14 1013.2 - 2.2 - Partly cloudy 4 - - - -
22/11:18pm 24.0 ESE 9 13 1013.2 - 2.0 - Partly cloudy 5 - - - -
22/11:13pm 24.1 ESE 8 13 1013.2 - 2.0 - Partly cloudy 7 - - - -
22/11:00pm 24.3 SE 7 13 1013.1 - 2.0 - Partly cloudy 10 - - - -
22/10:45pm 24.4 ESE 10 15 1013.1 - 2.0 - Partly cloudy 10 - - - -
22/10:35pm 24.7 ESE 9 15 1013.2 - 2.0 - Partly cloudy 7 - - - -
22/10:30pm 24.9 ESE 7 13 1013.2 - 1.8 - Partly cloudy 10 - - - -
22/10:00pm 26.0 ESE 7 13 1013.1 - 1.8 - Partly cloudy 10 - - - -
22/09:30pm 26.0 ESE 8 13 1013.0 - 1.8 - Cloudy 10 - - - -
22/09:00pm 25.7 ESE 7 12 1013.0 - 1.8 - Cloudy 10 - - - -
22/08:30pm 25.4 ESE 8 11 1012.8 - 1.8 - Partly cloudy 10 - - - -
22/08:00pm 25.4 ESE 10 14 1012.6 - 1.8 - Partly cloudy 10 - - - -
22/07:30pm 25.5 SE 9 13 1012.5 - 1.8 - Partly cloudy 10 - - - -
22/07:15pm 25.5 SE 11 17 1012.4 - 1.8 - Partly cloudy 10 - - - -
22/07:00pm 25.3 SE 9 15 1012.4 - 1.8 - Partly cloudy 10 - - - -
22/06:30pm 25.4 SE 8 13 1012.1 - 1.8 - Partly cloudy 10 - - - -
22/06:28pm 25.4 SE 8 12 1012.1 - 1.8 - Partly cloudy 10 - - - -
22/06:00pm 25.4 SE 9 15 1011.9 - 1.8 Rain Cloudy 10 - - - -
22/05:30pm 25.9 SE 10 17 1011.7 - 1.8 - Partly cloudy 10 - - - -
22/05:22pm 26.1 SE 10 17 1011.7 - 1.8 - Partly cloudy 10 - - - -
22/05:00pm 26.1 SE 11 17 1011.6 - 1.8 - Partly cloudy 10 - - - -
22/04:33pm 26.6 SE 10 16 1011.3 - 1.8 - Partly cloudy 10 - - - -
22/04:30pm 27.0 SE 9 15 1011.3 - 1.8 - Partly cloudy 10 - - - -
22/04:00pm 26.8 ESE 8 15 1011.3 - 1.8 - Partly cloudy 10 - - - -
22/03:30pm 27.0 ESE 10 17 1011.4 - 1.8 - Partly cloudy 10 - - - -
22/03:00pm 26.4 ESE 7 12 1011.6 - 1.8 Showers Cloudy 10 - - - -
22/02:30pm 26.6 ESE 8 13 1011.8 - 1.6 - Partly cloudy 10 - - - -
22/02:00pm 26.2 ESE 8 13 1011.9 - 1.6 - Partly cloudy 10 - - - -
22/01:30pm 26.1 ESE 8 13 1012.0 - 1.6 - Cloudy 10 - - - -
22/01:00pm 26.0 ESE 9 13 1012.2 - 1.6 - Partly cloudy 10 - - - -
22/12:30pm 26.3 SE 9 12 1012.3 - 1.0 - Partly cloudy 10 - - - -
22/12:02pm 26.3 SE 7 11 1012.6 - 0.6 - Partly cloudy 10 - - - -
22/12:00pm 26.1 SE 8 13 1012.6 - 0.6 Showers Cloudy 10 - - - -
22/11:52am 26.0 SE 9 15 1012.7 - 0.2 - Partly cloudy 10 - - - -
22/11:50am 26.1 SE 9 16 1012.7 - 0.2 - Partly cloudy 10 - - - -
22/11:30am 27.4 SE 9 16 1012.8 - 0.0 - Partly cloudy 10 - - - -
22/11:28am 27.6 SE 9 13 1012.7 - 0.0 - Partly cloudy 10 - - - -
22/11:20am 27.9 SE 10 15 1012.8 - 0.0 - Partly cloudy 10 - - - -
22/11:10am 27.6 ESE 9 15 1012.8 - 0.0 - Partly cloudy 10 - - - -
22/11:00am 27.7 ESE 10 17 1012.9 - 0.0 - Partly cloudy 10 - - - -
22/10:30am 29.4 ESE 7 13 1012.9 - 0.0 - Partly cloudy 10 - - - -
22/10:00am 29.7 ESE 6 10 1012.8 - 0.0 - Partly cloudy 10 - - - -
22/09:30am 29.8 ESE 6 9 1012.9 - 0.0 - Partly cloudy 10 - - - -
22/09:00am 29.0 E 6 8 1012.8 - 0.0 - Mostly cloudy 10 - - - -
22/08:30am 28.6 E 7 10 1012.4 - 0.0 - Partly cloudy 10 - - - -
22/08:00am 29.1 ENE 7 11 1012.2 - 0.0 - Partly cloudy 10 - - - -
22/07:56am 29.4 E 6 9 1012.1 - 0.0 - Partly cloudy 10 - - - -
22/07:38am 28.8 E 7 11 1012.0 - 0.0 - Partly cloudy 10 - - - -
22/07:30am 28.1 ESE 5 8 1011.9 - 0.0 - Partly cloudy 10 - - - -
22/07:00am 27.4 SE 3 4 1011.6 - 0.0 - - 10 - - - -
22/06:30am 25.4 SSE 4 5 1011.3 - 0.0 - - 10 - - - -
22/06:00am 24.6 S 3 5 1010.9 - 0.0 - Mostly cloudy 10 - - - -
22/05:30am 24.5 SE 3 5 1010.3 - 0.0 - Partly cloudy 10 - - - -
22/05:00am 24.5 SE 4 5 1009.8 - 0.0 - Partly cloudy 10 - - - -
22/04:30am 24.2 SSE 6 8 1009.3 - 0.0 - Partly cloudy 10 - - - -
22/04:00am 24.2 ESE 3 5 1008.6 - 0.0 - - 10 - - - -
22/03:30am 24.4 CALM 0 0 1008.5 - 0.0 - - 10 - - - -
22/03:00am 24.4 NNE 3 4 1008.3 - 0.0 - Mostly cloudy 10 - - - -
22/02:30am 24.1 NNE 5 6 1008.2 - 0.0 - Partly cloudy 10 - - - -
22/02:00am 24.5 CALM 0 4 1008.6 - 0.0 - - 10 - - - -
22/01:30am 24.9 CALM 0 0 1008.6 - 0.0 - - 10 - - - -
22/01:00am 25.2 CALM 0 0 1008.8 - 0.0 - - 10 - - - -
22/12:30am 25.6 N 3 4 1008.9 - 0.0 - - 10 - - - -
22/12:00am 26.0 NNW 4 7 1008.9 - 0.0 - Mostly cloudy 10 - - - -
 
Date/Time
EST
Temp
°C
Wind Pressure Rain since
9am
mm
Weather Cloud Vis
km
Sea
Height
m
Swell
Dir  Spd
kts
Gust
kts
hPa Trend Height
m
Period
s
Dir
21/11:30pm 26.1 NNW 4 7 1009.2 - 0.0 - - 10 - - - -
21/11:00pm 25.9 NNW 5 7 1009.3 - 0.0 - - 10 - - - -
21/10:30pm 25.7 N 5 7 1009.4 - 0.0 - - 10 - - - -
21/10:00pm 25.3 N 5 6 1009.5 - 0.0 - - 10 - - - -
21/09:30pm 25.7 NNE 4 5 1009.1 - 0.0 - - 10 - - - -
21/09:00pm 26.2 N 5 6 1008.7 - 0.0 - - 10 - - - -
21/08:30pm 26.9 N 4 7 1008.5 - 0.0 - - 10 - - - -
21/08:00pm 27.1 NNW 5 8 1008.0 - 0.0 - - 10 - - - -
21/07:30pm 27.1 NNW 4 5 1007.6 - 0.0 - - 10 - - - -
21/07:00pm 27.9 NNW 6 9 1007.2 - 0.0 - - 10 - - - -
21/06:30pm 28.8 NNW 9 11 1006.8 - 0.0 - - 10 - - - -
21/06:00pm 29.9 NNW 8 14 1006.4 - 0.0 - - 10 - - - -
21/05:30pm 31.1 NNW 8 12 1006.1 - 0.0 - - 10 - - - -
21/05:00pm 31.4 NNW 9 13 1005.9 - 0.0 - - 10 - - - -
21/04:30pm 32.3 NNW 10 13 1005.8 - 0.0 - - 10 - - - -
21/04:00pm 32.7 NNW 10 13 1005.8 - 0.0 - - 10 - - - -
21/03:30pm 32.9 N 10 15 1006.0 - 0.0 - - 10 - - - -
21/03:00pm 33.2 N 9 13 1006.3 - 0.0 - - 10 - - - -
21/02:30pm 33.4 NNW 10 14 1006.3 - 0.0 - - 10 - - - -
21/02:00pm 33.7 N 10 15 1006.7 - 0.0 - - 10 - - - -
21/01:30pm 32.9 N 9 13 1007.0 - 0.0 - - 10 - - - -
21/01:00pm 33.2 N 8 13 1007.2 - 0.0 - - 10 - - - -
21/12:30pm 32.7 N 9 13 1007.5 - 0.0 - - 10 - - - -
21/12:00pm 32.2 N 8 12 1007.9 - 0.0 - - 10 - - - -
21/11:30am 32.1 N 9 13 1008.2 - 0.0 - - 10 - - - -
21/11:00am 31.7 NW 8 12 1008.5 - 0.0 - - 10 - - - -
21/10:30am 31.1 NNW 8 13 1009.2 - 0.0 - - 10 - - - -
21/10:00am 30.1 NNW 9 13 1009.3 - 0.0 - - 10 - - - -
21/09:30am 30.5 NW 8 11 1009.1 - 0.0 - - 10 - - - -
21/09:00am 29.6 NW 9 12 1008.9 - 0.0 - - 10 - - - -
21/08:30am 28.5 NW 9 12 1009.1 - 0.0 - - 10 - - - -
21/08:00am 27.9 WNW 8 13 1009.3 - 0.0 - - 10 - - - -
21/07:30am 26.3 N 5 8 1009.0 - 0.0 - - 10 - - - -
21/07:00am 24.2 NE 3 4 1009.0 - 0.0 - - 10 - - - -
21/06:30am 21.6 CALM 0 4 1008.9 - 0.0 - - 10 - - - -
21/06:00am 20.2 CALM 0 0 1008.8 - 0.0 - - 10 - - - -
21/05:30am 19.1 CALM 0 0 1008.2 - 0.0 - - 10 - - - -
21/05:00am 18.9 CALM 0 0 1007.6 - 0.0 - - 10 - - - -
21/04:30am 19.2 CALM 0 0 1007.5 - 0.0 - - 10 - - - -
21/04:00am 19.3 CALM 0 0 1007.1 - 0.0 - - 10 - - - -
21/03:30am 19.9 CALM 0 0 1007.1 - 0.0 - - 10 - - - -
21/03:00am 20.0 CALM 0 0 1007.0 - 0.0 - - 10 - - - -

Other Formats:

Comma delimited format used in spreadsheet applications
http://www.bom.gov.au/fwo/IDQ60701/IDQ60701.94370.axf

JavaScript Object Notation format (JSON) in row-major order
http://www.bom.gov.au/fwo/IDQ60701/IDQ60701.94370.json